Time,TemperatureF,DewpointF,PressureIn,WindDirection,WindDirectionDegrees,WindSpeedMPH,WindSpeedGustMPH,Humidity,HourlyPrecipIn,Conditions,Clouds,dailyrainin,SoftwareType,DateUTC
2013-04-02 00:00:00,40.6,23.0,29.99,West,260,2.0,3.0,49,0.00,,---,0.00,VWS V14.01,2013-04-02 04:00:00,
2013-04-02 00:05:00,40.5,22.4,29.99,West,279,3.0,7.0,48,0.00,,---,0.00,VWS V14.01,2013-04-02 04:05:00,
2013-04-02 00:10:00,40.8,22.6,29.99,WNW,291,2.0,2.0,48,0.00,,---,0.00,VWS V14.01,2013-04-02 04:10:00,
2013-04-02 00:15:00,41.0,21.8,29.99,WNW,290,6.0,9.0,46,0.00,,---,0.00,VWS V14.01,2013-04-02 04:15:00,
2013-04-02 00:20:00,41.0,21.3,29.99,West,274,3.0,7.0,45,0.00,,---,0.00,VWS V14.01,2013-04-02 04:20:00,
2013-04-02 00:25:00,41.2,21.0,29.99,NNW,329,5.0,7.0,44,0.00,,---,0.00,VWS V14.01,2013-04-02 04:25:00,
2013-04-02 00:30:00,41.1,20.9,29.99,NW,307,2.0,4.0,44,0.00,,---,0.00,VWS V14.01,2013-04-02 04:30:00,
2013-04-02 00:35:00,41.2,21.0,29.99,WNW,294,1.0,5.0,44,0.00,,---,0.00,VWS V14.01,2013-04-02 04:35:00,
2013-04-02 00:40:00,41.1,20.9,29.99,WNW,295,1.0,5.0,44,0.00,,---,0.00,VWS V14.01,2013-04-02 04:40:00,
2013-04-02 00:45:00,41.1,20.3,30.00,WNW,290,1.0,5.0,43,0.00,,---,0.00,VWS V14.01,2013-04-02 04:45:00,
2013-04-02 00:50:00,40.9,20.1,30.00,NW,308,2.0,2.0,43,0.00,,---,0.00,VWS V14.01,2013-04-02 04:50:00,
2013-04-02 00:55:00,40.7,20.0,30.00,WNW,283,0.0,3.0,43,0.00,,---,0.00,VWS V14.01,2013-04-02 04:55:00,
2013-04-02 01:00:00,40.5,20.3,30.00,WNW,298,0.0,0.0,44,0.00,,---,0.00,VWS V14.01,2013-04-02 05:00:00,
2013-04-02 01:05:00,39.9,20.3,30.00,NW,316,0.0,1.0,45,0.00,,---,0.00,VWS V14.01,2013-04-02 05:05:00,
2013-04-02 01:10:00,39.4,20.9,30.00,NNW,337,0.0,1.0,47,0.00,,---,0.00,VWS V14.01,2013-04-02 05:10:00,
2013-04-02 01:15:00,38.8,19.8,30.00,NW,322,0.0,1.0,46,0.00,,---,0.00,VWS V14.01,2013-04-02 05:15:00,
2013-04-02 01:20:00,38.7,20.2,30.00,WNW,298,0.0,1.0,47,0.00,,---,0.00,VWS V14.01,2013-04-02 05:20:00,
2013-04-02 01:25:00,38.0,20.5,30.01,WNW,291,0.0,2.0,49,0.00,,---,0.00,VWS V14.01,2013-04-02 05:25:00,
2013-04-02 01:30:00,38.0,20.1,30.01,NW,326,0.0,1.0,48,0.00,,---,0.00,VWS V14.01,2013-04-02 05:30:00,
2013-04-02 01:35:00,38.1,20.2,30.01,NW,308,1.0,2.0,48,0.00,,---,0.00,VWS V14.01,2013-04-02 05:35:00,
2013-04-02 01:40:00,37.9,20.5,30.01,WNW,290,1.0,2.0,49,0.00,,---,0.00,VWS V14.01,2013-04-02 05:40:00,
2013-04-02 01:45:00,37.8,19.9,30.01,NW,308,0.0,3.0,48,0.00,,---,0.00,VWS V14.01,2013-04-02 05:45:00,
2013-04-02 01:50:00,37.8,19.9,30.01,WNW,298,1.0,1.0,48,0.00,,---,0.00,VWS V14.01,2013-04-02 05:50:00,
2013-04-02 01:55:00,37.7,20.3,30.01,NNW,332,0.0,2.0,49,0.00,,---,0.00,VWS V14.01,2013-04-02 05:55:00,
2013-04-02 02:00:00,37.5,20.1,30.01,NNW,346,0.0,1.0,49,0.00,,---,0.00,VWS V14.01,2013-04-02 06:00:00,
2013-04-02 02:05:00,37.0,20.1,30.01,NNW,329,1.0,2.0,50,0.00,,---,0.00,VWS V14.01,2013-04-02 06:05:00,
2013-04-02 02:10:00,37.1,19.7,30.01,NNW,333,0.0,0.0,49,0.00,,---,0.00,VWS V14.01,2013-04-02 06:10:00,
2013-04-02 02:15:00,36.9,19.5,30.01,NW,313,0.0,2.0,49,0.00,,---,0.00,VWS V14.01,2013-04-02 06:15:00,
2013-04-02 02:20:00,37.3,19.9,30.01,WNW,293,1.0,3.0,49,0.00,,---,0.00,VWS V14.01,2013-04-02 06:20:00,
2013-04-02 02:25:00,37.5,19.6,30.01,WNW,293,0.0,3.0,48,0.00,,---,0.00,VWS V14.01,2013-04-02 06:25:00,
2013-04-02 02:30:00,37.2,19.3,30.01,NNW,348,0.0,0.0,48,0.00,,---,0.00,VWS V14.01,2013-04-02 06:30:00,
2013-04-02 02:35:00,36.4,20.5,30.01,East,94,3.0,3.0,52,0.00,,---,0.00,VWS V14.01,2013-04-02 06:35:00,
2013-04-02 02:40:00,34.5,22.5,30.01,ESE,110,0.0,1.0,61,0.00,,---,0.00,VWS V14.01,2013-04-02 06:40:00,
2013-04-02 02:45:00,33.0,21.8,30.01,ENE,72,2.0,2.0,63,0.00,,---,0.00,VWS V14.01,2013-04-02 06:45:00,
2013-04-02 02:50:00,32.7,21.1,30.01,ENE,72,1.0,2.0,62,0.00,,---,0.00,VWS V14.01,2013-04-02 06:50:00,
2013-04-02 02:51:00,32.7,21.1,30.01,WSW,255,1.0,2.0,62,0.00,,---,0.00,VWS V14.01,2013-04-02 06:51:00,
2013-04-02 02:56:00,32.2,21.4,30.01,East,96,0.0,2.0,64,0.00,,---,0.00,VWS V14.01,2013-04-02 06:56:00,
2013-04-02 03:00:00,32.1,21.3,30.01,East,96,1.0,2.0,64,0.00,,---,0.00,VWS V14.01,2013-04-02 07:00:00,
2013-04-02 03:01:00,32.0,21.2,30.01,ENE,74,1.0,1.0,64,0.00,,---,0.00,VWS V14.01,2013-04-02 07:01:00,
2013-04-02 03:06:00,31.5,21.1,30.01,ENE,71,0.0,1.0,65,0.00,,---,0.00,VWS V14.01,2013-04-02 07:06:00,
2013-04-02 03:10:00,31.4,20.6,30.01,East,94,0.0,1.0,64,0.00,,---,0.00,VWS V14.01,2013-04-02 07:10:00,
2013-04-02 03:11:00,31.5,20.4,30.01,East,95,0.0,0.0,63,0.00,,---,0.00,VWS V14.01,2013-04-02 07:11:00,
2013-04-02 03:16:00,32.1,21.7,30.01,ENE,68,0.0,1.0,65,0.00,,---,0.00,VWS V14.01,2013-04-02 07:16:00,
2013-04-02 03:20:00,31.7,21.3,30.01,South,177,2.0,3.0,65,0.00,,---,0.00,VWS V14.01,2013-04-02 07:20:00,
2013-04-02 03:23:00,32.1,21.3,30.01,ENE,77,2.0,2.0,64,0.00,,---,0.00,VWS V14.01,2013-04-02 07:23:00,
2013-04-02 03:28:00,32.0,20.9,30.01,WNW,298,0.0,2.0,63,0.00,,---,0.00,VWS V14.01,2013-04-02 07:28:00,
2013-04-02 03:30:00,31.8,20.7,30.01,WNW,298,0.0,2.0,63,0.00,,---,0.00,VWS V14.01,2013-04-02 07:30:00,
2013-04-02 03:33:00,31.3,21.6,30.01,WNW,300,0.0,0.0,67,0.00,,---,0.00,VWS V14.01,2013-04-02 07:33:00,
2013-04-02 03:38:00,31.0,21.0,30.01,West,277,0.0,2.0,66,0.00,,---,0.00,VWS V14.01,2013-04-02 07:38:00,
2013-04-02 03:40:00,31.0,20.6,30.01,NNE,32,0.0,2.0,65,0.00,,---,0.00,VWS V14.01,2013-04-02 07:40:00,
2013-04-02 03:43:00,31.0,20.6,30.01,NNE,30,0.0,0.0,65,0.00,,---,0.00,VWS V14.01,2013-04-02 07:43:00,
2013-04-02 03:48:00,30.7,21.8,30.01,NNE,30,0.0,0.0,69,0.00,,---,0.00,VWS V14.01,2013-04-02 07:48:00,
2013-04-02 03:50:00,30.6,21.3,30.01,NNE,30,0.0,0.0,68,0.00,,---,0.00,VWS V14.01,2013-04-02 07:50:00,
2013-04-02 03:53:00,30.5,20.5,30.01,NW,307,1.0,1.0,66,0.00,,---,0.00,VWS V14.01,2013-04-02 07:53:00,
2013-04-02 03:58:00,30.3,20.7,30.01,NNE,22,0.0,1.0,67,0.00,,---,0.00,VWS V14.01,2013-04-02 07:58:00,
2013-04-02 04:00:00,30.5,20.9,30.01,NNE,25,0.0,2.0,67,0.00,,---,0.00,VWS V14.01,2013-04-02 08:00:00,
2013-04-02 04:03:00,31.0,20.6,30.01,North,6,1.0,2.0,65,0.00,,---,0.00,VWS V14.01,2013-04-02 08:03:00,
2013-04-02 04:08:00,31.0,20.6,30.01,West,277,0.0,2.0,65,0.00,,---,0.00,VWS V14.01,2013-04-02 08:08:00,
2013-04-02 04:10:00,30.9,20.9,30.01,West,277,0.0,2.0,66,0.00,,---,0.00,VWS V14.01,2013-04-02 08:10:00,
2013-04-02 04:13:00,30.7,20.7,30.01,West,276,0.0,0.0,66,0.00,,---,0.00,VWS V14.01,2013-04-02 08:13:00,
2013-04-02 04:18:00,30.2,20.2,30.02,West,276,0.0,0.0,66,0.00,,---,0.00,VWS V14.01,2013-04-02 08:18:00,
2013-04-02 04:20:00,30.1,20.5,30.02,West,277,0.0,0.0,67,0.00,,---,0.00,VWS V14.01,2013-04-02 08:20:00,
2013-04-02 04:23:00,29.9,19.9,30.02,West,277,0.0,0.0,66,0.00,,---,0.00,VWS V14.01,2013-04-02 08:23:00,
2013-04-02 04:28:00,29.6,19.3,30.02,West,275,0.0,0.0,65,0.00,,---,0.00,VWS V14.01,2013-04-02 08:28:00,
2013-04-02 04:30:00,29.8,19.5,30.01,West,277,0.0,0.0,65,0.00,,---,0.00,VWS V14.01,2013-04-02 08:30:00,
2013-04-02 04:33:00,30.0,19.3,30.02,West,277,0.0,0.0,64,0.00,,---,0.00,VWS V14.01,2013-04-02 08:33:00,
2013-04-02 04:38:00,30.0,20.0,30.02,NW,304,0.0,1.0,66,0.00,,---,0.00,VWS V14.01,2013-04-02 08:38:00,
2013-04-02 04:40:00,29.9,19.9,30.02,NW,304,0.0,1.0,66,0.00,,---,0.00,VWS V14.01,2013-04-02 08:40:00,
2013-04-02 04:43:00,29.7,19.4,30.02,WNW,298,0.0,1.0,65,0.00,,---,0.00,VWS V14.01,2013-04-02 08:43:00,
2013-04-02 04:50:00,29.5,19.6,30.02,WNW,298,0.0,0.0,66,0.00,,---,0.00,VWS V14.01,2013-04-02 08:50:00,
2013-04-02 04:55:00,29.2,20.0,30.02,WNW,298,0.0,0.0,68,0.00,,---,0.00,VWS V14.01,2013-04-02 08:55:00,
2013-04-02 05:00:00,29.3,21.1,30.03,NNE,29,0.0,0.0,71,0.00,,---,0.00,VWS V14.01,2013-04-02 09:00:00,
2013-04-02 05:05:00,29.1,20.5,30.03,NNE,29,0.0,0.0,70,0.00,,---,0.00,VWS V14.01,2013-04-02 09:05:00,
2013-04-02 05:10:00,28.8,20.3,30.03,West,262,0.0,0.0,70,0.00,,---,0.00,VWS V14.01,2013-04-02 09:10:00,
2013-04-02 05:15:00,29.1,19.9,30.03,North,1,0.0,1.0,68,0.00,,---,0.00,VWS V14.01,2013-04-02 09:15:00,
2013-04-02 05:20:00,29.2,19.6,30.03,North,1,0.0,1.0,67,0.00,,---,0.00,VWS V14.01,2013-04-02 09:20:00,
2013-04-02 05:21:00,29.2,19.6,30.03,North,1,0.0,1.0,67,0.00,,---,0.00,VWS V14.01,2013-04-02 09:21:00,
2013-04-02 05:26:00,29.4,19.5,30.03,North,1,0.0,1.0,66,0.00,,---,0.00,VWS V14.01,2013-04-02 09:26:00,
2013-04-02 05:30:00,29.3,20.1,30.03,North,1,0.0,1.0,68,0.00,,---,0.00,VWS V14.01,2013-04-02 09:30:00,
2013-04-02 05:31:00,29.2,20.0,30.03,North,1,0.0,0.0,68,0.00,,---,0.00,VWS V14.01,2013-04-02 09:31:00,
2013-04-02 05:36:00,28.7,20.5,30.04,North,360,0.0,0.0,71,0.00,,---,0.00,VWS V14.01,2013-04-02 09:36:00,
2013-04-02 05:40:00,28.3,20.8,30.04,North,359,0.0,0.0,73,0.00,,---,0.00,VWS V14.01,2013-04-02 09:40:00,
2013-04-02 05:41:00,28.2,20.7,30.04,North,360,0.0,0.0,73,0.00,,---,0.00,VWS V14.01,2013-04-02 09:41:00,
2013-04-02 05:46:00,27.9,20.4,30.04,NNW,329,0.0,1.0,73,0.00,,---,0.00,VWS V14.01,2013-04-02 09:46:00,
2013-04-02 05:50:00,28.3,19.8,30.04,NW,319,0.0,1.0,70,0.00,,---,0.00,VWS V14.01,2013-04-02 09:50:00,
2013-04-02 05:51:00,28.5,20.3,30.04,NW,319,0.0,0.0,71,0.00,,---,0.00,VWS V14.01,2013-04-02 09:51:00,
2013-04-02 05:56:00,28.7,19.5,30.04,NNW,328,0.0,1.0,68,0.00,,---,0.00,VWS V14.01,2013-04-02 09:56:00,
2013-04-02 06:00:00,28.7,20.5,30.04,WSW,238,0.0,1.0,71,0.00,,---,0.00,VWS V14.01,2013-04-02 10:00:00,
2013-04-02 06:01:00,28.6,20.4,30.04,WSW,237,0.0,0.0,71,0.00,,---,0.00,VWS V14.01,2013-04-02 10:01:00,
2013-04-02 06:06:00,28.1,20.9,30.05,WSW,238,0.0,0.0,74,0.00,,---,0.00,VWS V14.01,2013-04-02 10:06:00,
2013-04-02 06:10:00,27.8,21.2,30.05,NE,41,0.0,1.0,76,0.00,,---,0.00,VWS V14.01,2013-04-02 10:10:00,
2013-04-02 06:11:00,27.8,20.9,30.05,NE,41,1.0,1.0,75,0.00,,---,0.00,VWS V14.01,2013-04-02 10:11:00,
2013-04-02 06:16:00,27.7,20.5,30.05,NE,41,0.0,1.0,74,0.00,,---,0.00,VWS V14.01,2013-04-02 10:16:00,
2013-04-02 06:20:00,27.5,20.6,30.05,NE,41,0.0,1.0,75,0.00,,---,0.00,VWS V14.01,2013-04-02 10:20:00,
2013-04-02 06:21:00,27.5,20.6,30.05,East,79,0.0,0.0,75,0.00,,---,0.00,VWS V14.01,2013-04-02 10:21:00,
2013-04-02 06:26:00,27.7,20.5,30.05,NNE,27,0.0,1.0,74,0.00,,---,0.00,VWS V14.01,2013-04-02 10:26:00,
2013-04-02 06:30:00,28.1,20.6,30.06,NNE,27,0.0,1.0,73,0.00,,---,0.00,VWS V14.01,2013-04-02 10:30:00,
2013-04-02 06:31:00,28.1,20.6,30.06,NNE,29,0.0,0.0,73,0.00,,---,0.00,VWS V14.01,2013-04-02 10:31:00,
2013-04-02 06:36:00,27.3,21.1,30.06,NNE,29,0.0,0.0,77,0.00,,---,0.00,VWS V14.01,2013-04-02 10:36:00,
2013-04-02 06:40:00,26.9,21.0,30.06,NNE,29,0.0,0.0,78,0.00,,---,0.00,VWS V14.01,2013-04-02 10:40:00,
2013-04-02 06:41:00,26.7,21.1,30.07,NNE,29,0.0,0.0,79,0.00,,---,0.00,VWS V14.01,2013-04-02 10:41:00,
2013-04-02 06:46:00,26.4,20.8,30.07,NNE,30,0.0,0.0,79,0.00,,---,0.00,VWS V14.01,2013-04-02 10:46:00,
2013-04-02 06:50:00,26.4,21.1,30.07,NNE,30,0.0,0.0,80,0.00,,---,0.00,VWS V14.01,2013-04-02 10:50:00,
2013-04-02 06:51:00,26.4,20.8,30.07,NNE,30,0.0,1.0,79,0.00,,---,0.00,VWS V14.01,2013-04-02 10:51:00,
2013-04-02 06:56:00,26.9,19.7,30.07,ENE,73,2.0,2.0,74,0.00,,---,0.00,VWS V14.01,2013-04-02 10:56:00,
2013-04-02 07:00:00,27.3,19.8,30.07,ENE,74,1.0,2.0,73,0.00,,---,0.00,VWS V14.01,2013-04-02 11:00:00,
2013-04-02 07:02:00,27.5,20.0,30.08,ENE,78,0.0,1.0,73,0.00,,---,0.00,VWS V14.01,2013-04-02 11:02:00,
2013-04-02 07:07:00,27.0,20.1,30.08,ENE,78,0.0,1.0,75,0.00,,---,0.00,VWS V14.01,2013-04-02 11:07:00,
2013-04-02 07:10:00,26.7,19.9,30.08,ENE,78,0.0,1.0,75,0.00,,---,0.00,VWS V14.01,2013-04-02 11:10:00,
2013-04-02 07:12:00,26.5,20.0,30.08,ENE,77,0.0,0.0,76,0.00,,---,0.00,VWS V14.01,2013-04-02 11:12:00,
2013-04-02 07:17:00,26.9,20.4,30.09,ENE,78,0.0,0.0,76,0.00,,---,0.00,VWS V14.01,2013-04-02 11:17:00,
2013-04-02 07:20:00,27.3,21.1,30.09,ENE,78,0.0,0.0,77,0.00,,---,0.00,VWS V14.01,2013-04-02 11:20:00,
2013-04-02 07:22:00,27.7,20.8,30.09,ENE,78,0.0,0.0,75,0.00,,---,0.00,VWS V14.01,2013-04-02 11:22:00,
2013-04-02 07:27:00,28.4,20.9,30.10,ENE,78,0.0,0.0,73,0.00,,---,0.00,VWS V14.01,2013-04-02 11:27:00,
2013-04-02 07:30:00,28.9,21.0,30.10,ENE,78,0.0,0.0,72,0.00,,---,0.00,VWS V14.01,2013-04-02 11:30:00,
2013-04-02 07:32:00,29.3,21.7,30.10,ENE,78,0.0,0.0,73,0.00,,---,0.00,VWS V14.01,2013-04-02 11:32:00,
2013-04-02 07:37:00,30.1,22.5,30.11,ENE,78,0.0,0.0,73,0.00,,---,0.00,VWS V14.01,2013-04-02 11:37:00,
2013-04-02 07:40:00,30.4,23.4,30.11,ENE,78,0.0,0.0,75,0.00,,---,0.00,VWS V14.01,2013-04-02 11:40:00,
2013-04-02 07:42:00,30.6,22.7,30.11,ENE,78,0.0,0.0,72,0.00,,---,0.00,VWS V14.01,2013-04-02 11:42:00,
2013-04-02 07:47:00,30.8,22.5,30.11,ENE,78,0.0,1.0,71,0.00,,---,0.00,VWS V14.01,2013-04-02 11:47:00,
2013-04-02 07:50:00,31.0,22.7,30.11,ENE,78,0.0,1.0,71,0.00,,---,0.00,VWS V14.01,2013-04-02 11:50:00,
2013-04-02 07:52:00,31.3,23.3,30.11,ENE,77,0.0,0.0,72,0.00,,---,0.00,VWS V14.01,2013-04-02 11:52:00,
2013-04-02 07:57:00,31.9,23.2,30.11,ENE,77,0.0,1.0,70,0.00,,---,0.00,VWS V14.01,2013-04-02 11:57:00,
2013-04-02 08:00:00,32.5,22.4,30.11,ENE,78,0.0,1.0,66,0.00,,---,0.00,VWS V14.01,2013-04-02 12:00:00,
2013-04-02 08:02:00,33.4,25.4,30.11,ENE,78,0.0,0.0,72,0.00,,---,0.00,VWS V14.01,2013-04-02 12:02:00,
2013-04-02 08:07:00,34.7,25.2,30.12,ENE,78,0.0,0.0,68,0.00,,---,0.00,VWS V14.01,2013-04-02 12:07:00,
2013-04-02 08:10:00,35.0,24.4,30.12,East,79,0.0,0.0,65,0.00,,---,0.00,VWS V14.01,2013-04-02 12:10:00,
2013-04-02 08:12:00,35.2,23.9,30.12,East,79,0.0,0.0,63,0.00,,---,0.00,VWS V14.01,2013-04-02 12:12:00,
2013-04-02 08:17:00,35.8,24.1,30.12,East,79,0.0,1.0,62,0.00,,---,0.00,VWS V14.01,2013-04-02 12:17:00,
2013-04-02 08:20:00,36.3,22.1,30.12,East,79,0.0,1.0,56,0.00,,---,0.00,VWS V14.01,2013-04-02 12:20:00,
2013-04-02 08:22:00,37.1,22.4,30.12,East,79,0.0,0.0,55,0.00,,---,0.00,VWS V14.01,2013-04-02 12:22:00,
2013-04-02 08:27:00,38.6,23.0,30.12,SE,145,0.0,0.0,53,0.00,,---,0.00,VWS V14.01,2013-04-02 12:27:00,
2013-04-02 08:30:00,39.1,23.4,30.12,SE,145,0.0,0.0,53,0.00,,---,0.00,VWS V14.01,2013-04-02 12:30:00,
2013-04-02 08:32:00,39.7,23.5,30.12,SE,146,0.0,0.0,52,0.00,,---,0.00,VWS V14.01,2013-04-02 12:32:00,
2013-04-02 08:37:00,40.6,23.0,30.12,SSE,150,0.0,1.0,49,0.00,,---,0.00,VWS V14.01,2013-04-02 12:37:00,
2013-04-02 08:40:00,41.0,23.3,30.12,SSE,149,0.0,1.0,49,0.00,,---,0.00,VWS V14.01,2013-04-02 12:40:00,
2013-04-02 08:42:00,41.3,23.6,30.12,SSE,167,1.0,1.0,49,0.00,,---,0.00,VWS V14.01,2013-04-02 12:42:00,
2013-04-02 08:47:00,41.8,22.5,30.12,WNW,300,5.0,5.0,46,0.00,,---,0.00,VWS V14.01,2013-04-02 12:47:00,
2013-04-02 08:50:00,41.7,20.3,30.12,WSW,256,2.0,5.0,42,0.00,,---,0.00,VWS V14.01,2013-04-02 12:50:00,
2013-04-02 08:52:00,41.5,19.6,30.12,WNW,288,5.0,6.0,41,0.00,,---,0.00,VWS V14.01,2013-04-02 12:52:00,
2013-04-02 08:57:00,41.6,20.2,30.12,WSW,250,4.0,8.0,42,0.00,,---,0.00,VWS V14.01,2013-04-02 12:57:00,
2013-04-02 09:00:00,41.6,19.7,30.12,WNW,288,5.0,10.0,41,0.00,,---,0.00,VWS V14.01,2013-04-02 13:00:00,
2013-04-02 09:02:00,41.6,19.7,30.12,NW,311,7.0,9.0,41,0.00,,---,0.00,VWS V14.01,2013-04-02 13:02:00,
2013-04-02 09:07:00,41.7,19.8,30.12,WNW,295,7.0,14.0,41,0.00,,---,0.00,VWS V14.01,2013-04-02 13:07:00,
2013-04-02 09:10:00,41.7,18.6,30.12,NW,317,1.0,14.0,39,0.00,,---,0.00,VWS V14.01,2013-04-02 13:10:00,
2013-04-02 09:12:00,41.9,19.4,30.12,WNW,284,4.0,6.0,40,0.00,,---,0.00,VWS V14.01,2013-04-02 13:12:00,
2013-04-02 09:17:00,42.1,17.7,30.12,WNW,291,6.0,9.0,37,0.00,,---,0.00,VWS V14.01,2013-04-02 13:17:00,
2013-04-02 09:20:00,42.1,19.5,30.12,WNW,290,5.0,9.0,40,0.00,,---,0.00,VWS V14.01,2013-04-02 13:20:00,
2013-04-02 09:22:00,42.2,17.8,30.12,West,268,6.0,13.0,37,0.00,,---,0.00,VWS V14.01,2013-04-02 13:22:00,
2013-04-02 09:27:00,42.3,18.5,30.12,WNW,287,10.0,13.0,38,0.00,,---,0.00,VWS V14.01,2013-04-02 13:27:00,
2013-04-02 09:30:00,42.2,17.8,30.12,WNW,295,8.0,13.0,37,0.00,,---,0.00,VWS V14.01,2013-04-02 13:30:00,
2013-04-02 09:32:00,42.2,17.2,30.12,NW,315,8.0,16.0,36,0.00,,---,0.00,VWS V14.01,2013-04-02 13:32:00,
2013-04-02 09:37:00,42.3,18.5,30.12,WNW,294,5.0,16.0,38,0.00,,---,0.00,VWS V14.01,2013-04-02 13:37:00,
2013-04-02 09:40:00,42.4,18.0,30.12,WNW,295,4.0,16.0,37,0.00,,---,0.00,VWS V14.01,2013-04-02 13:40:00,
2013-04-02 09:42:00,42.5,17.4,30.12,WNW,284,1.0,9.0,36,0.00,,---,0.00,VWS V14.01,2013-04-02 13:42:00,
2013-04-02 09:47:00,43.0,17.9,30.12,WNW,287,5.0,11.0,36,0.00,,---,0.00,VWS V14.01,2013-04-02 13:47:00,
2013-04-02 09:50:00,43.1,18.6,30.12,WNW,285,7.0,11.0,37,0.00,,---,0.00,VWS V14.01,2013-04-02 13:50:00,
2013-04-02 09:52:00,43.0,17.2,30.12,NW,318,7.0,16.0,35,0.00,,---,0.00,VWS V14.01,2013-04-02 13:52:00,
2013-04-02 09:57:00,42.8,17.7,30.12,WNW,291,2.0,16.0,36,0.00,,---,0.00,VWS V14.01,2013-04-02 13:57:00,
2013-04-02 10:00:00,42.8,17.1,30.12,WNW,288,1.0,16.0,35,0.00,,---,0.00,VWS V14.01,2013-04-02 14:00:00,
2013-04-02 10:02:00,42.9,15.8,30.12,North,4,9.0,11.0,33,0.00,,---,0.00,VWS V14.01,2013-04-02 14:02:00,
2013-04-02 10:07:00,43.1,17.3,30.12,WNW,295,5.0,13.0,35,0.00,,---,0.00,VWS V14.01,2013-04-02 14:07:00,
2013-04-02 10:10:00,43.1,17.3,30.12,WNW,301,7.0,13.0,35,0.00,,---,0.00,VWS V14.01,2013-04-02 14:10:00,
2013-04-02 10:12:00,43.3,18.8,30.12,West,268,8.0,14.0,37,0.00,,---,0.00,VWS V14.01,2013-04-02 14:12:00,
2013-04-02 10:18:00,43.3,17.5,30.12,SW,222,4.0,15.0,35,0.00,,---,0.00,VWS V14.01,2013-04-02 14:18:00,
2013-04-02 10:20:00,43.3,17.5,30.12,WNW,285,3.0,15.0,35,0.00,,---,0.00,VWS V14.01,2013-04-02 14:20:00,
2013-04-02 10:22:00,43.4,15.5,30.12,West,278,5.0,14.0,32,0.00,,---,0.00,VWS V14.01,2013-04-02 14:22:00,
2013-04-02 10:27:00,43.7,18.5,30.12,WNW,288,7.0,14.0,36,0.00,,---,0.00,VWS V14.01,2013-04-02 14:27:00,
2013-04-02 10:30:00,43.6,15.7,30.12,WSW,254,0.0,14.0,32,0.00,,---,0.00,VWS V14.01,2013-04-02 14:30:00,
2013-04-02 10:32:00,43.8,16.6,30.12,WNW,294,10.0,11.0,33,0.00,,---,0.00,VWS V14.01,2013-04-02 14:32:00,
2013-04-02 10:38:00,43.8,15.9,30.12,West,274,6.0,14.0,32,0.00,,---,0.00,VWS V14.01,2013-04-02 14:38:00,
2013-04-02 10:40:00,43.9,16.7,30.12,West,279,6.0,14.0,33,0.00,,---,0.00,VWS V14.01,2013-04-02 14:40:00,
2013-04-02 10:43:00,44.3,17.7,30.12,WNW,290,2.0,13.0,34,0.00,,---,0.00,VWS V14.01,2013-04-02 14:43:00,
2013-04-02 10:48:00,44.7,16.7,30.12,West,276,8.0,13.0,32,0.00,,---,0.00,VWS V14.01,2013-04-02 14:48:00,
2013-04-02 10:50:00,44.6,15.9,30.12,WNW,294,7.0,13.0,31,0.00,,---,0.00,VWS V14.01,2013-04-02 14:50:00,
2013-04-02 10:53:00,44.4,16.4,30.12,SSE,162,2.0,12.0,32,0.00,,---,0.00,VWS V14.01,2013-04-02 14:53:00,
2013-04-02 10:58:00,45.0,20.3,30.11,WSW,243,8.0,13.0,37,0.00,,---,0.00,VWS V14.01,2013-04-02 14:58:00,
2013-04-02 11:00:00,45.0,16.9,30.12,WNW,282,10.0,13.0,32,0.00,,---,0.00,VWS V14.01,2013-04-02 15:00:00,
2013-04-02 11:03:00,44.7,15.9,30.11,WNW,285,9.0,14.0,31,0.00,,---,0.00,VWS V14.01,2013-04-02 15:03:00,
2013-04-02 11:08:00,44.8,16.0,30.12,NW,305,7.0,14.0,31,0.00,,---,0.00,VWS V14.01,2013-04-02 15:08:00,
2013-04-02 11:10:00,44.7,16.7,30.12,WNW,284,5.0,14.0,32,0.00,,---,0.00,VWS V14.01,2013-04-02 15:10:00,
2013-04-02 11:13:00,44.6,15.9,30.12,West,267,5.0,8.0,31,0.00,,---,0.00,VWS V14.01,2013-04-02 15:13:00,
2013-04-02 11:18:00,45.0,17.6,30.12,WSW,240,9.0,10.0,33,0.00,,---,0.00,VWS V14.01,2013-04-02 15:18:00,
2013-04-02 11:20:00,45.0,16.2,30.12,WSW,248,1.0,11.0,31,0.00,,---,0.00,VWS V14.01,2013-04-02 15:20:00,
2013-04-02 11:23:00,45.3,14.1,30.12,NNW,347,8.0,17.0,28,0.00,,---,0.00,VWS V14.01,2013-04-02 15:23:00,
2013-04-02 11:28:00,45.4,15.8,30.11,West,281,5.0,17.0,30,0.00,,---,0.00,VWS V14.01,2013-04-02 15:28:00,
2013-04-02 11:30:00,45.6,15.2,30.12,WNW,290,8.0,17.0,29,0.00,,---,0.00,VWS V14.01,2013-04-02 15:30:00,
2013-04-02 11:33:00,45.5,15.1,30.12,WNW,288,5.0,17.0,29,0.00,,---,0.00,VWS V14.01,2013-04-02 15:33:00,
2013-04-02 11:38:00,45.9,16.2,30.11,WNW,292,5.0,17.0,30,0.00,,---,0.00,VWS V14.01,2013-04-02 15:38:00,
2013-04-02 11:40:00,46.1,16.4,30.11,NW,321,4.0,17.0,30,0.00,,---,0.00,VWS V14.01,2013-04-02 15:40:00,
2013-04-02 11:43:00,46.3,14.2,30.11,WNW,297,7.0,13.0,27,0.00,,---,0.00,VWS V14.01,2013-04-02 15:43:00,
2013-04-02 11:48:00,46.2,16.5,30.11,WNW,283,3.0,16.0,30,0.00,,---,0.00,VWS V14.01,2013-04-02 15:48:00,
2013-04-02 11:50:00,46.6,17.6,30.11,SW,227,5.0,16.0,31,0.00,,---,0.00,VWS V14.01,2013-04-02 15:50:00,
2013-04-02 11:53:00,46.7,14.5,30.11,NW,307,8.0,9.0,27,0.00,,---,0.00,VWS V14.01,2013-04-02 15:53:00,
2013-04-02 11:58:00,46.6,13.6,30.11,WNW,285,4.0,16.0,26,0.00,,---,0.00,VWS V14.01,2013-04-02 15:58:00,
2013-04-02 12:00:00,46.5,14.3,30.11,WSW,257,9.0,16.0,27,0.00,,---,0.00,VWS V14.01,2013-04-02 16:00:00,
2013-04-02 12:03:00,46.9,17.1,30.11,WNW,297,10.0,11.0,30,0.00,,---,0.00,VWS V14.01,2013-04-02 16:03:00,
2013-04-02 12:08:00,46.9,12.0,30.11,WNW,285,11.0,17.0,24,0.00,,---,0.00,VWS V14.01,2013-04-02 16:08:00,
2013-04-02 12:10:00,46.9,12.0,30.11,WNW,291,8.0,17.0,24,0.00,,---,0.00,VWS V14.01,2013-04-02 16:10:00,
2013-04-02 12:13:00,46.7,12.8,30.11,WNW,291,9.0,16.0,25,0.00,,---,0.00,VWS V14.01,2013-04-02 16:13:00,
2013-04-02 12:18:00,47.4,12.4,30.10,West,264,6.0,16.0,24,0.00,,---,0.00,VWS V14.01,2013-04-02 16:18:00,
2013-04-02 12:20:00,47.5,13.4,30.11,NNW,345,6.0,16.0,25,0.00,,---,0.00,VWS V14.01,2013-04-02 16:20:00,
2013-04-02 12:23:00,47.3,13.3,30.10,WNW,293,10.0,16.0,25,0.00,,---,0.00,VWS V14.01,2013-04-02 16:23:00,
2013-04-02 12:28:00,47.0,11.1,30.10,West,274,6.0,19.0,23,0.00,,---,0.00,VWS V14.01,2013-04-02 16:28:00,
2013-04-02 12:30:00,47.0,13.0,30.10,WNW,292,10.0,19.0,25,0.00,,---,0.00,VWS V14.01,2013-04-02 16:30:00,
2013-04-02 12:34:00,47.0,11.1,30.10,NNW,335,10.0,16.0,23,0.00,,---,0.00,VWS V14.01,2013-04-02 16:34:00,
2013-04-02 12:39:00,47.4,15.1,30.10,WNW,297,6.0,16.0,27,0.00,,---,0.00,VWS V14.01,2013-04-02 16:39:00,
2013-04-02 12:40:00,47.5,15.2,30.10,WNW,287,8.0,16.0,27,0.00,,---,0.00,VWS V14.01,2013-04-02 16:40:00,
2013-04-02 12:44:00,47.2,14.1,30.09,WNW,295,4.0,15.0,26,0.00,,---,0.00,VWS V14.01,2013-04-02 16:44:00,
2013-04-02 12:49:00,47.4,13.4,30.09,NW,326,5.0,16.0,25,0.00,,---,0.00,VWS V14.01,2013-04-02 16:49:00,
2013-04-02 12:50:00,47.5,13.4,30.09,NNW,338,6.0,16.0,25,0.00,,---,0.00,VWS V14.01,2013-04-02 16:50:00,
2013-04-02 12:54:00,48.0,16.5,30.09,WNW,292,7.0,16.0,28,0.00,,---,0.00,VWS V14.01,2013-04-02 16:54:00,
2013-04-02 12:59:00,48.1,15.7,30.09,NW,311,9.0,16.0,27,0.00,,---,0.00,VWS V14.01,2013-04-02 16:59:00,
2013-04-02 13:00:00,48.2,15.8,30.09,West,271,6.0,16.0,27,0.00,,---,0.00,VWS V14.01,2013-04-02 17:00:00,
2013-04-02 13:04:00,47.9,11.9,30.09,WNW,297,10.0,19.0,23,0.00,,---,0.00,VWS V14.01,2013-04-02 17:04:00,
2013-04-02 13:09:00,48.4,18.4,30.08,WNW,283,12.0,19.0,30,0.00,,---,0.00,VWS V14.01,2013-04-02 17:09:00,
2013-04-02 13:10:00,48.3,13.2,30.08,WSW,257,11.0,19.0,24,0.00,,---,0.00,VWS V14.01,2013-04-02 17:10:00,
2013-04-02 13:14:00,48.8,14.6,30.09,West,277,8.0,17.0,25,0.00,,---,0.00,VWS V14.01,2013-04-02 17:14:00,
2013-04-02 13:19:00,48.7,10.5,30.09,WSW,242,8.0,17.0,21,0.00,,---,0.00,VWS V14.01,2013-04-02 17:19:00,
2013-04-02 13:20:00,48.7,10.5,30.09,West,271,9.0,17.0,21,0.00,,---,0.00,VWS V14.01,2013-04-02 17:20:00,
2013-04-02 13:24:00,48.5,12.4,30.08,North,5,10.0,15.0,23,0.00,,---,0.00,VWS V14.01,2013-04-02 17:24:00,
2013-04-02 13:29:00,48.7,14.5,30.08,WNW,302,4.0,17.0,25,0.00,,---,0.00,VWS V14.01,2013-04-02 17:29:00,
2013-04-02 13:30:00,48.8,13.6,30.08,WSW,252,9.0,17.0,24,0.00,,---,0.00,VWS V14.01,2013-04-02 17:30:00,
2013-04-02 13:34:00,49.0,10.8,30.08,West,271,7.0,19.0,21,0.00,,---,0.00,VWS V14.01,2013-04-02 17:34:00,
2013-04-02 13:39:00,48.8,11.7,30.08,WNW,295,3.0,19.0,22,0.00,,---,0.00,VWS V14.01,2013-04-02 17:39:00,
2013-04-02 13:40:00,48.8,11.7,30.08,NW,316,11.0,19.0,22,0.00,,---,0.00,VWS V14.01,2013-04-02 17:40:00,
2013-04-02 13:44:00,48.7,11.6,30.08,West,281,8.0,13.0,22,0.00,,---,0.00,VWS V14.01,2013-04-02 17:44:00,
2013-04-02 13:49:00,48.6,9.4,30.08,WSW,245,3.0,13.0,20,0.00,,---,0.00,VWS V14.01,2013-04-02 17:49:00,
2013-04-02 13:50:00,48.5,9.3,30.07,West,278,6.0,13.0,20,0.00,,---,0.00,VWS V14.01,2013-04-02 17:50:00,
2013-04-02 13:54:00,49.0,9.7,30.08,WNW,288,14.0,21.0,20,0.00,,---,0.00,VWS V14.01,2013-04-02 17:54:00,
2013-04-02 13:59:00,49.2,13.0,30.07,West,264,12.0,21.0,23,0.00,,---,0.00,VWS V14.01,2013-04-02 17:59:00,
2013-04-02 14:00:00,49.2,13.0,30.07,West,262,12.0,21.0,23,0.00,,---,0.00,VWS V14.01,2013-04-02 18:00:00,
2013-04-02 14:04:00,49.4,10.0,30.07,WNW,284,9.0,15.0,20,0.00,,---,0.00,VWS V14.01,2013-04-02 18:04:00,
2013-04-02 14:09:00,49.7,11.4,30.07,WNW,284,13.0,21.0,21,0.00,,---,0.00,VWS V14.01,2013-04-02 18:09:00,
2013-04-02 14:10:00,49.6,11.3,30.07,NW,305,13.0,21.0,21,0.00,,---,0.00,VWS V14.01,2013-04-02 18:10:00,
2013-04-02 14:14:00,49.3,11.0,30.07,NW,321,7.0,19.0,21,0.00,,---,0.00,VWS V14.01,2013-04-02 18:14:00,
2013-04-02 14:19:00,49.6,13.3,30.07,West,266,8.0,19.0,23,0.00,,---,0.00,VWS V14.01,2013-04-02 18:19:00,
2013-04-02 14:20:00,49.6,10.2,30.07,North,349,3.0,19.0,20,0.00,,---,0.00,VWS V14.01,2013-04-02 18:20:00,
2013-04-02 14:24:00,50.1,10.6,30.07,WNW,293,4.0,12.0,20,0.00,,---,0.00,VWS V14.01,2013-04-02 18:24:00,
2013-04-02 14:29:00,50.2,10.7,30.06,WNW,293,5.0,17.0,20,0.00,,---,0.00,VWS V14.01,2013-04-02 18:29:00,
2013-04-02 14:30:00,50.3,10.8,30.06,WNW,291,3.0,17.0,20,0.00,,---,0.00,VWS V14.01,2013-04-02 18:30:00,
2013-04-02 14:34:00,50.8,11.2,30.06,West,267,9.0,20.0,20,0.00,,---,0.00,VWS V14.01,2013-04-02 18:34:00,
2013-04-02 14:39:00,50.6,11.0,30.06,NW,307,12.0,20.0,20,0.00,,---,0.00,VWS V14.01,2013-04-02 18:39:00,
2013-04-02 14:40:00,50.5,10.9,30.06,West,260,8.0,20.0,20,0.00,,---,0.00,VWS V14.01,2013-04-02 18:40:00,
2013-04-02 14:44:00,50.2,8.3,30.06,NNW,332,7.0,13.0,18,0.00,,---,0.00,VWS V14.01,2013-04-02 18:44:00,
2013-04-02 14:49:00,50.1,9.5,30.05,WNW,300,6.0,16.0,19,0.00,,---,0.00,VWS V14.01,2013-04-02 18:49:00,
2013-04-02 14:50:00,50.1,9.5,30.06,WNW,295,8.0,16.0,19,0.00,,---,0.00,VWS V14.01,2013-04-02 18:50:00,
2013-04-02 14:54:00,50.4,8.5,30.06,West,264,10.0,17.0,18,0.00,,---,0.00,VWS V14.01,2013-04-02 18:54:00,
2013-04-02 14:59:00,50.3,11.9,30.05,WNW,295,7.0,7.0,21,0.00,,---,0.00,VWS V14.01,2013-04-02 18:59:00,
2013-04-02 15:00:00,50.3,8.4,30.06,WSW,257,3.0,17.0,18,0.00,,---,0.00,VWS V14.01,2013-04-02 19:00:00,
2013-04-02 15:04:00,51.0,14.5,30.05,WNW,290,3.0,12.0,23,0.00,,---,0.00,VWS V14.01,2013-04-02 19:04:00,
2013-04-02 15:09:00,51.2,12.6,30.05,WNW,285,3.0,5.0,21,0.00,,---,0.00,VWS V14.01,2013-04-02 19:09:00,
2013-04-02 15:10:00,51.2,12.6,30.05,West,264,5.0,15.0,21,0.00,,---,0.00,VWS V14.01,2013-04-02 19:10:00,
2013-04-02 15:14:00,51.2,11.5,30.05,West,260,4.0,13.0,20,0.00,,---,0.00,VWS V14.01,2013-04-02 19:14:00,
2013-04-02 15:19:00,51.7,9.6,30.05,West,281,4.0,4.0,18,0.00,,---,0.00,VWS V14.01,2013-04-02 19:19:00,
2013-04-02 15:20:00,51.6,9.5,30.05,WNW,300,3.0,16.0,18,0.00,,---,0.00,VWS V14.01,2013-04-02 19:20:00,
2013-04-02 15:25:00,51.3,10.5,30.05,NW,321,3.0,15.0,19,0.00,,---,0.00,VWS V14.01,2013-04-02 19:25:00,
2013-04-02 15:30:00,51.2,7.9,30.05,West,262,6.0,10.0,17,0.00,,---,0.00,VWS V14.01,2013-04-02 19:30:00,
2013-04-02 15:35:00,51.3,10.5,30.04,WNW,290,7.0,11.0,19,0.00,,---,0.00,VWS V14.01,2013-04-02 19:35:00,
2013-04-02 15:40:00,51.8,8.4,30.04,North,351,7.0,7.0,17,0.00,,---,0.00,VWS V14.01,2013-04-02 19:40:00,
2013-04-02 15:45:00,51.6,10.7,30.04,West,268,7.0,18.0,19,0.00,,---,0.00,VWS V14.01,2013-04-02 19:45:00,
2013-04-02 15:50:00,51.3,10.5,30.04,NNW,338,2.0,8.0,19,0.00,,---,0.00,VWS V14.01,2013-04-02 19:50:00,
2013-04-02 15:55:00,51.5,8.1,30.04,West,269,2.0,13.0,17,0.00,,---,0.00,VWS V14.01,2013-04-02 19:55:00,
2013-04-02 16:00:00,51.6,6.9,30.03,NW,311,7.0,14.0,16,0.00,,---,0.00,VWS V14.01,2013-04-02 20:00:00,
2013-04-02 16:05:00,51.6,10.7,30.03,NE,44,5.0,14.0,19,0.00,,---,0.00,VWS V14.01,2013-04-02 20:05:00,
2013-04-02 16:10:00,52.1,12.3,30.03,NW,307,5.0,9.0,20,0.00,,---,0.00,VWS V14.01,2013-04-02 20:10:00,
2013-04-02 16:15:00,51.9,10.9,30.03,WSW,253,6.0,13.0,19,0.00,,---,0.00,VWS V14.01,2013-04-02 20:15:00,
2013-04-02 16:20:00,52.3,11.3,30.03,WNW,288,7.0,12.0,19,0.00,,---,0.00,VWS V14.01,2013-04-02 20:20:00,
2013-04-02 16:25:00,52.3,11.3,30.03,North,354,6.0,12.0,19,0.00,,---,0.00,VWS V14.01,2013-04-02 20:25:00,
2013-04-02 16:30:00,52.3,11.3,30.03,West,273,6.0,7.0,19,0.00,,---,0.00,VWS V14.01,2013-04-02 20:30:00,
2013-04-02 16:36:00,52.4,7.5,30.03,NW,321,8.0,18.0,16,0.00,,---,0.00,VWS V14.01,2013-04-02 20:36:00,
2013-04-02 16:40:00,52.0,9.8,30.03,NNW,343,1.0,18.0,18,0.00,,---,0.00,VWS V14.01,2013-04-02 20:40:00,
2013-04-02 16:41:00,52.0,11.0,30.03,North,1,1.0,5.0,19,0.00,,---,0.00,VWS V14.01,2013-04-02 20:41:00,
2013-04-02 16:46:00,52.4,8.9,30.03,WNW,287,8.0,13.0,17,0.00,,---,0.00,VWS V14.01,2013-04-02 20:46:00,
2013-04-02 16:50:00,52.5,11.4,30.03,WSW,256,2.0,14.0,19,0.00,,---,0.00,VWS V14.01,2013-04-02 20:50:00,
2013-04-02 16:51:00,52.6,11.5,30.03,West,267,4.0,6.0,19,0.00,,---,0.00,VWS V14.01,2013-04-02 20:51:00,
2013-04-02 16:56:00,52.3,8.8,30.04,WNW,288,7.0,13.0,17,0.00,,---,0.00,VWS V14.01,2013-04-02 20:56:00,
2013-04-02 17:00:00,52.1,9.9,30.04,North,11,8.0,16.0,18,0.00,,---,0.00,VWS V14.01,2013-04-02 21:00:00,
2013-04-02 17:01:00,52.1,8.6,30.03,NW,315,5.0,10.0,17,0.00,,---,0.00,VWS V14.01,2013-04-02 21:01:00,
2013-04-02 17:06:00,52.5,7.6,30.04,NW,305,9.0,14.0,16,0.00,,---,0.00,VWS V14.01,2013-04-02 21:06:00,
2013-04-02 17:10:00,52.4,7.5,30.03,WNW,297,5.0,14.0,16,0.00,,---,0.00,VWS V14.01,2013-04-02 21:10:00,
2013-04-02 17:11:00,52.4,7.5,30.03,WNW,302,5.0,12.0,16,0.00,,---,0.00,VWS V14.01,2013-04-02 21:11:00,
2013-04-02 17:16:00,52.5,7.6,30.04,NNW,337,3.0,12.0,16,0.00,,---,0.00,VWS V14.01,2013-04-02 21:16:00,
2013-04-02 17:20:00,52.5,10.2,30.04,West,281,8.0,17.0,18,0.00,,---,0.00,VWS V14.01,2013-04-02 21:20:00,
2013-04-02 17:21:00,52.4,8.9,30.04,WNW,288,7.0,12.0,17,0.00,,---,0.00,VWS V14.01,2013-04-02 21:21:00,
2013-04-02 17:26:00,52.2,10.0,30.04,WNW,295,3.0,13.0,18,0.00,,---,0.00,VWS V14.01,2013-04-02 21:26:00,
2013-04-02 17:30:00,52.2,7.4,30.04,WNW,294,8.0,13.0,16,0.00,,---,0.00,VWS V14.01,2013-04-02 21:30:00,
2013-04-02 17:31:00,52.2,10.0,30.04,WNW,303,4.0,8.0,18,0.00,,---,0.00,VWS V14.01,2013-04-02 21:31:00,
2013-04-02 17:37:00,52.4,7.5,30.04,West,262,7.0,11.0,16,0.00,,---,0.00,VWS V14.01,2013-04-02 21:37:00,
2013-04-02 17:40:00,52.2,8.7,30.04,NW,322,4.0,14.0,17,0.00,,---,0.00,VWS V14.01,2013-04-02 21:40:00,
2013-04-02 17:42:00,52.2,7.4,30.04,NNW,340,4.0,11.0,16,0.00,,---,0.00,VWS V14.01,2013-04-02 21:42:00,
2013-04-02 17:47:00,52.1,8.6,30.05,NW,305,4.0,13.0,17,0.00,,---,0.00,VWS V14.01,2013-04-02 21:47:00,
2013-04-02 17:50:00,52.0,7.2,30.05,NW,305,7.0,13.0,16,0.00,,---,0.00,VWS V14.01,2013-04-02 21:50:00,
2013-04-02 17:52:00,52.1,8.6,30.05,NNW,339,1.0,10.0,17,0.00,,---,0.00,VWS V14.01,2013-04-02 21:52:00,
2013-04-02 17:57:00,52.0,7.2,30.05,WNW,292,2.0,10.0,16,0.00,,---,0.00,VWS V14.01,2013-04-02 21:57:00,
2013-04-02 18:00:00,52.2,11.2,30.05,NW,321,3.0,10.0,19,0.00,,---,0.00,VWS V14.01,2013-04-02 22:00:00,
2013-04-02 18:02:00,52.3,7.5,30.05,North,350,5.0,9.0,16,0.00,,---,0.00,VWS V14.01,2013-04-02 22:02:00,
2013-04-02 18:07:00,52.4,8.9,30.06,WNW,302,2.0,9.0,17,0.00,,---,0.00,VWS V14.01,2013-04-02 22:07:00,
2013-04-02 18:10:00,52.5,10.2,30.06,NW,314,2.0,9.0,18,0.00,,---,0.00,VWS V14.01,2013-04-02 22:10:00,
2013-04-02 18:12:00,52.5,9.0,30.06,NNW,328,2.0,7.0,17,0.00,,---,0.00,VWS V14.01,2013-04-02 22:12:00,
2013-04-02 18:17:00,52.3,8.8,30.06,NW,311,3.0,10.0,17,0.00,,---,0.00,VWS V14.01,2013-04-02 22:17:00,
2013-04-02 18:20:00,52.2,8.7,30.06,West,267,5.0,11.0,17,0.00,,---,0.00,VWS V14.01,2013-04-02 22:20:00,
2013-04-02 18:22:00,52.1,9.9,30.06,WNW,288,2.0,7.0,18,0.00,,---,0.00,VWS V14.01,2013-04-02 22:22:00,
2013-04-02 18:27:00,51.9,8.5,30.06,NNE,13,6.0,9.0,17,0.00,,---,0.00,VWS V14.01,2013-04-02 22:27:00,
2013-04-02 18:30:00,51.8,12.0,30.06,NE,36,1.0,9.0,20,0.00,,---,0.00,VWS V14.01,2013-04-02 22:30:00,
2013-04-02 18:32:00,51.9,8.5,30.06,NNE,26,3.0,5.0,17,0.00,,---,0.00,VWS V14.01,2013-04-02 22:32:00,
2013-04-02 18:37:00,51.8,8.4,30.06,ENE,58,8.0,8.0,17,0.00,,---,0.00,VWS V14.01,2013-04-02 22:37:00,
2013-04-02 18:40:00,51.7,9.6,30.06,North,11,5.0,13.0,18,0.00,,---,0.00,VWS V14.01,2013-04-02 22:40:00,
2013-04-02 18:42:00,51.6,8.2,30.06,NW,316,2.0,7.0,17,0.00,,---,0.00,VWS V14.01,2013-04-02 22:42:00,
2013-04-02 18:47:00,51.5,9.4,30.06,WNW,300,7.0,8.0,18,0.00,,---,0.00,VWS V14.01,2013-04-02 22:47:00,
2013-04-02 18:50:00,51.4,11.7,30.06,West,276,5.0,8.0,20,0.00,,---,0.00,VWS V14.01,2013-04-02 22:50:00,
2013-04-02 18:52:00,51.2,9.2,30.07,WNW,295,7.0,8.0,18,0.00,,---,0.00,VWS V14.01,2013-04-02 22:52:00,
2013-04-02 18:57:00,51.0,9.0,30.07,WNW,282,0.0,8.0,18,0.00,,---,0.00,VWS V14.01,2013-04-02 22:57:00,
2013-04-02 19:00:00,51.0,10.2,30.07,NW,323,1.0,8.0,19,0.00,,---,0.00,VWS V14.01,2013-04-02 23:00:00,
2013-04-02 19:02:00,51.0,10.2,30.07,WNW,282,1.0,4.0,19,0.00,,---,0.00,VWS V14.01,2013-04-02 23:02:00,
2013-04-02 19:07:00,50.6,8.7,30.07,NNW,347,5.0,7.0,18,0.00,,---,0.00,VWS V14.01,2013-04-02 23:07:00,
2013-04-02 19:10:00,50.5,9.8,30.07,NW,314,2.0,7.0,19,0.00,,---,0.00,VWS V14.01,2013-04-02 23:10:00,
2013-04-02 19:12:00,50.3,9.6,30.07,NNW,335,1.0,6.0,19,0.00,,---,0.00,VWS V14.01,2013-04-02 23:12:00,
2013-04-02 19:17:00,49.9,8.1,30.08,WNW,302,1.0,8.0,18,0.00,,---,0.00,VWS V14.01,2013-04-02 23:17:00,
2013-04-02 19:20:00,49.8,9.2,30.07,WNW,291,0.0,8.0,19,0.00,,---,0.00,VWS V14.01,2013-04-02 23:20:00,
2013-04-02 19:22:00,49.3,8.8,30.07,NNW,327,2.0,5.0,19,0.00,,---,0.00,VWS V14.01,2013-04-02 23:22:00,
2013-04-02 19:27:00,48.7,8.3,30.08,WNW,293,0.0,5.0,19,0.00,,---,0.00,VWS V14.01,2013-04-02 23:27:00,
2013-04-02 19:30:00,48.4,9.2,30.08,WNW,302,0.0,5.0,20,0.00,,---,0.00,VWS V14.01,2013-04-02 23:30:00,
2013-04-02 19:33:00,48.0,7.7,30.08,NW,321,0.0,3.0,19,0.00,,---,0.00,VWS V14.01,2013-04-02 23:33:00,
2013-04-02 19:38:00,47.6,8.5,30.08,NW,322,1.0,3.0,20,0.00,,---,0.00,VWS V14.01,2013-04-02 23:38:00,
2013-04-02 19:40:00,47.5,8.4,30.08,NNW,348,2.0,4.0,20,0.00,,---,0.00,VWS V14.01,2013-04-02 23:40:00,
2013-04-02 19:43:00,47.2,9.3,30.08,NW,307,0.0,2.0,21,0.00,,---,0.00,VWS V14.01,2013-04-02 23:43:00,
2013-04-02 19:48:00,46.6,8.8,30.09,NW,311,1.0,4.0,21,0.00,,---,0.00,VWS V14.01,2013-04-02 23:48:00,
2013-04-02 19:50:00,46.5,8.7,30.09,NNW,328,0.0,4.0,21,0.00,,---,0.00,VWS V14.01,2013-04-02 23:50:00,
2013-04-02 19:53:00,46.2,9.5,30.09,NW,311,0.0,0.0,22,0.00,,---,0.00,VWS V14.01,2013-04-02 23:53:00,
2013-04-02 19:58:00,45.7,11.9,30.09,NW,316,1.0,2.0,25,0.00,,---,0.00,VWS V14.01,2013-04-02 23:58:00,
2013-04-02 20:00:00,45.5,9.9,30.09,NW,307,0.0,2.0,23,0.00,,---,0.00,VWS V14.01,2013-04-03 00:00:00,
2013-04-02 20:03:00,45.1,9.5,30.09,NNW,334,0.0,1.0,23,0.00,,---,0.00,VWS V14.01,2013-04-03 00:03:00,
2013-04-02 20:08:00,44.5,11.8,30.10,NNW,334,0.0,1.0,26,0.00,,---,0.00,VWS V14.01,2013-04-03 00:08:00,
2013-04-02 20:10:00,44.3,11.6,30.10,NNW,334,0.0,1.0,26,0.00,,---,0.00,VWS V14.01,2013-04-03 00:10:00,
2013-04-02 20:13:00,43.8,10.3,30.10,WNW,298,0.0,1.0,25,0.00,,---,0.00,VWS V14.01,2013-04-03 00:13:00,
2013-04-02 20:18:00,43.4,13.3,30.11,NNW,347,0.0,1.0,29,0.00,,---,0.00,VWS V14.01,2013-04-03 00:18:00,
2013-04-02 20:20:00,43.1,11.4,30.11,NNW,337,0.0,1.0,27,0.00,,---,0.00,VWS V14.01,2013-04-03 00:20:00,
2013-04-02 20:23:00,42.6,10.1,30.11,NNW,337,0.0,1.0,26,0.00,,---,0.00,VWS V14.01,2013-04-03 00:23:00,
2013-04-02 20:28:00,42.3,9.9,30.11,NNW,330,0.0,1.0,26,0.00,,---,0.00,VWS V14.01,2013-04-03 00:28:00,
2013-04-02 20:30:00,42.3,10.7,30.11,NW,321,0.0,1.0,27,0.00,,---,0.00,VWS V14.01,2013-04-03 00:30:00,
2013-04-02 20:33:00,42.1,10.6,30.11,North,5,0.0,1.0,27,0.00,,---,0.00,VWS V14.01,2013-04-03 00:33:00,
2013-04-02 20:38:00,41.8,11.1,30.11,NNW,347,0.0,2.0,28,0.00,,---,0.00,VWS V14.01,2013-04-03 00:38:00,
2013-04-02 20:40:00,41.7,11.8,30.11,NNW,347,0.0,2.0,29,0.00,,---,0.00,VWS V14.01,2013-04-03 00:40:00,
2013-04-02 20:43:00,41.2,11.4,30.12,NNW,333,1.0,1.0,29,0.00,,---,0.00,VWS V14.01,2013-04-03 00:43:00,
2013-04-02 20:48:00,40.8,11.0,30.12,NNW,329,0.0,1.0,29,0.00,,---,0.00,VWS V14.01,2013-04-03 00:48:00,
2013-04-02 20:50:00,40.8,11.0,30.12,NNW,342,0.0,1.0,29,0.00,,---,0.00,VWS V14.01,2013-04-03 00:50:00,
2013-04-02 20:53:00,40.7,10.9,30.12,NNW,338,0.0,2.0,29,0.00,,---,0.00,VWS V14.01,2013-04-03 00:53:00,
2013-04-02 20:58:00,40.3,11.4,30.12,WNW,283,0.0,2.0,30,0.00,,---,0.00,VWS V14.01,2013-04-03 00:58:00,
2013-04-02 21:00:00,40.2,11.3,30.12,North,356,0.0,2.0,30,0.00,,---,0.00,VWS V14.01,2013-04-03 01:00:00,
2013-04-02 21:03:00,39.8,11.6,30.13,NNW,327,0.0,1.0,31,0.00,,---,0.00,VWS V14.01,2013-04-03 01:03:00,
2013-04-02 21:08:00,39.8,10.1,30.13,NNW,333,0.0,3.0,29,0.00,,---,0.00,VWS V14.01,2013-04-03 01:08:00,
2013-04-02 21:10:00,39.8,11.6,30.13,WNW,283,0.0,3.0,31,0.00,,---,0.00,VWS V14.01,2013-04-03 01:10:00,
2013-04-02 21:13:00,39.9,11.7,30.13,SW,214,0.0,1.0,31,0.00,,---,0.00,VWS V14.01,2013-04-03 01:13:00,
2013-04-02 21:18:00,39.5,12.1,30.13,NW,310,0.0,2.0,32,0.00,,---,0.00,VWS V14.01,2013-04-03 01:18:00,
2013-04-02 21:20:00,39.4,12.7,30.13,North,356,0.0,2.0,33,0.00,,---,0.00,VWS V14.01,2013-04-03 01:20:00,
2013-04-02 21:23:00,38.8,12.2,30.13,NW,322,0.0,1.0,33,0.00,,---,0.00,VWS V14.01,2013-04-03 01:23:00,
2013-04-02 21:28:00,38.1,12.2,30.14,NNW,338,0.0,1.0,34,0.00,,---,0.00,VWS V14.01,2013-04-03 01:28:00,
2013-04-02 21:30:00,38.0,14.1,30.14,NNW,339,0.0,1.0,37,0.00,,---,0.00,VWS V14.01,2013-04-03 01:30:00,
2013-04-02 21:33:00,37.3,12.8,30.14,WNW,302,0.0,0.0,36,0.00,,---,0.00,VWS V14.01,2013-04-03 01:33:00,
2013-04-02 21:38:00,36.9,13.7,30.14,NNW,335,0.0,0.0,38,0.00,,---,0.00,VWS V14.01,2013-04-03 01:38:00,
2013-04-02 21:40:00,36.8,13.6,30.14,NNW,336,0.0,0.0,38,0.00,,---,0.00,VWS V14.01,2013-04-03 01:40:00,
2013-04-02 21:43:00,36.3,13.7,30.14,NNW,336,0.0,0.0,39,0.00,,---,0.00,VWS V14.01,2013-04-03 01:43:00,
2013-04-02 21:48:00,35.7,13.8,30.15,NNW,336,0.0,0.0,40,0.00,,---,0.00,VWS V14.01,2013-04-03 01:48:00,
2013-04-02 21:50:00,35.7,13.2,30.14,NNW,346,1.0,1.0,39,0.00,,---,0.00,VWS V14.01,2013-04-03 01:50:00,
2013-04-02 21:53:00,35.9,12.2,30.15,NNW,337,0.0,1.0,37,0.00,,---,0.00,VWS V14.01,2013-04-03 01:53:00,
2013-04-02 21:58:00,36.1,13.0,30.15,NNW,330,0.0,1.0,38,0.00,,---,0.00,VWS V14.01,2013-04-03 01:58:00,
2013-04-02 22:00:00,36.0,13.5,30.15,NNW,329,0.0,1.0,39,0.00,,---,0.00,VWS V14.01,2013-04-03 02:00:00,
2013-04-02 22:04:00,35.6,14.2,30.15,WNW,285,0.0,1.0,41,0.00,,---,0.00,VWS V14.01,2013-04-03 02:04:00,
2013-04-02 22:09:00,34.9,14.7,30.15,WNW,285,0.0,1.0,43,0.00,,---,0.00,VWS V14.01,2013-04-03 02:09:00,
2013-04-02 22:10:00,34.8,14.6,30.15,WNW,288,0.0,1.0,43,0.00,,---,0.00,VWS V14.01,2013-04-03 02:10:00,
2013-04-02 22:14:00,34.5,13.8,30.15,NNW,342,0.0,1.0,42,0.00,,---,0.00,VWS V14.01,2013-04-03 02:14:00,
2013-04-02 22:19:00,34.2,12.4,30.16,North,350,0.0,1.0,40,0.00,,---,0.00,VWS V14.01,2013-04-03 02:19:00,
2013-04-02 22:20:00,34.2,13.0,30.16,North,350,0.0,1.0,41,0.00,,---,0.00,VWS V14.01,2013-04-03 02:20:00,
2013-04-02 22:24:00,34.3,13.1,30.16,North,350,0.0,0.0,41,0.00,,---,0.00,VWS V14.01,2013-04-03 02:24:00,
2013-04-02 22:29:00,33.7,15.1,30.16,North,350,0.0,0.0,46,0.00,,---,0.00,VWS V14.01,2013-04-03 02:29:00,
2013-04-02 22:30:00,33.7,15.1,30.16,North,349,0.0,0.0,46,0.00,,---,0.00,VWS V14.01,2013-04-03 02:30:00,
2013-04-02 22:34:00,33.3,17.6,30.16,ESE,105,0.0,1.0,52,0.00,,---,0.00,VWS V14.01,2013-04-03 02:34:00,
2013-04-02 22:39:00,33.0,17.3,30.16,ESE,104,0.0,1.0,52,0.00,,---,0.00,VWS V14.01,2013-04-03 02:39:00,
2013-04-02 22:40:00,33.0,17.3,30.16,ESE,105,0.0,1.0,52,0.00,,---,0.00,VWS V14.01,2013-04-03 02:40:00,
2013-04-02 22:44:00,32.6,16.9,30.16,ESE,105,0.0,0.0,52,0.00,,---,0.00,VWS V14.01,2013-04-03 02:44:00,
2013-04-02 22:49:00,32.4,15.9,30.16,East,87,1.0,1.0,50,0.00,,---,0.00,VWS V14.01,2013-04-03 02:49:00,
2013-04-02 22:50:00,32.4,15.9,30.16,East,87,1.0,1.0,50,0.00,,---,0.00,VWS V14.01,2013-04-03 02:50:00,
2013-04-02 22:54:00,32.4,14.9,30.17,East,83,1.0,1.0,48,0.00,,---,0.00,VWS V14.01,2013-04-03 02:54:00,
2013-04-02 22:59:00,32.9,14.9,30.17,East,90,1.0,1.0,47,0.00,,---,0.00,VWS V14.01,2013-04-03 02:59:00,
2013-04-02 23:00:00,32.9,14.9,30.17,East,90,1.0,1.0,47,0.00,,---,0.00,VWS V14.01,2013-04-03 03:00:00,
2013-04-02 23:04:00,33.2,14.2,30.17,East,92,0.0,1.0,45,0.00,,---,0.00,VWS V14.01,2013-04-03 03:04:00,
2013-04-02 23:09:00,32.9,15.4,30.17,East,91,0.0,1.0,48,0.00,,---,0.00,VWS V14.01,2013-04-03 03:09:00,
2013-04-02 23:10:00,32.9,15.4,30.17,East,91,0.0,1.0,48,0.00,,---,0.00,VWS V14.01,2013-04-03 03:10:00,
2013-04-02 23:14:00,32.5,15.0,30.17,East,92,0.0,0.0,48,0.00,,---,0.00,VWS V14.01,2013-04-03 03:14:00,
2013-04-02 23:19:00,32.1,16.5,30.17,East,92,0.0,0.0,52,0.00,,---,0.00,VWS V14.01,2013-04-03 03:19:00,
2013-04-02 23:20:00,32.1,16.5,30.17,East,92,0.0,0.0,52,0.00,,---,0.00,VWS V14.01,2013-04-03 03:20:00,
2013-04-02 23:24:00,32.0,15.9,30.17,WNW,298,0.0,2.0,51,0.00,,---,0.00,VWS V14.01,2013-04-03 03:24:00,
2013-04-02 23:29:00,31.5,15.5,30.17,WNW,289,0.0,0.0,51,0.00,,---,0.00,VWS V14.01,2013-04-03 03:29:00,
2013-04-02 23:30:00,31.5,15.5,30.17,WNW,289,0.0,2.0,51,0.00,,---,0.00,VWS V14.01,2013-04-03 03:30:00,
2013-04-02 23:35:00,31.3,14.8,30.17,ENE,78,0.0,1.0,50,0.00,,---,0.00,VWS V14.01,2013-04-03 03:35:00,
2013-04-02 23:40:00,31.0,15.4,30.17,ENE,78,0.0,0.0,52,0.00,,---,0.00,VWS V14.01,2013-04-03 03:40:00,
2013-04-02 23:45:00,30.7,15.6,30.18,ENE,78,0.0,0.0,53,0.00,,---,0.00,VWS V14.01,2013-04-03 03:45:00,
2013-04-02 23:50:00,30.4,16.6,30.17,ENE,78,0.0,0.0,56,0.00,,---,0.00,VWS V14.01,2013-04-03 03:50:00,
2013-04-02 23:55:00,30.5,15.0,30.17,WSW,242,1.0,2.0,52,0.00,,---,0.00,VWS V14.01,2013-04-03 03:55:00,